Aviation Digital Data Service (ADDS)

Output produced by METARs form (0538 UTC 24 January 2019)
found at http://www.aviationweather.gov/metar/data/
 
Forecast for: UIII (IRKUTSK , RU)
Text: TAF UIII 240500Z 2406/2506 14006MPS CAVOK
Forecast period: 0600 UTC 24 January 2019 to 0600 UTC 25 January 2019
Forecast type: FROM: standard forecast or significant change
Winds: from the SE (140 degrees) at 14 MPH (12 knots; 6.2 m/s)
Visibility: 6 or more miles 10+ km)
Ceiling: unknown
Clouds: missing
Weather: NSW  (no significant weather)